< < Back
Terminal Aerodrome Forecast


Current Version              Previous Versions:   1  2  3  4  5  6  7  8  9  

Terminal Aerodrome Forecast

574
FTUS42 KFFC 302321
TAFPDK
TAF
KPDK 302321Z 0100/0124 19008KT 6SM BR VCSH BKN050
      TEMPO 0100/0102 5SM -TSRA BR BKN050CB
     FM010400 17003KT P6SM SCT060 BKN250
     FM011400 21004KT P6SM BKN015
     FM011600 23007KT P6SM VCSH BKN025
     FM011700 23009KT 4SM -TSRA BKN030CB
     FM012000 23006KT P6SM VCSH OVC040=

Latest METAR

249
SAUS70 KWBC 011000 RRQ
MTRPDK
METAR KPDK 010953Z AUTO 00000KT 7SM CLR 18/18 A3000 RMK AO2 SLP146
T01830183


USA.gov is the U.S. government's official web portal to all federal, state and local government web resources and services.